Tropical Cyclones
[Index]
Main Index Home Page Stock Weather Photos Extreme Storms Discussion Storm News and Storm Chasing Reports Tropical Cyclones / Hurricanes / Typhoons Weather Data and Links Wild Fires / Bushfires Weather Observation Techniques Weather Picture Catalogue Tornado Pictures and Reports Stock Video Footage and DVDs for sale
Season 2010-2011 Tropical Cyclone CARLOS Track Map
Season 2010-2011 Summaries (Operational Data): [AU] [SIO] [SPAC] [SH]
<<- Previous TC | 2010-2011 Season | Next TC ->>

click for intensity scale information  Lat/long Grid: Show Hide

 Date Labels: Show Hide

Operational Tropical Cyclone Data : JTWC Advisories | BoM Warnings

Name: CARLOS
Number: 1115

15 Feb 2011 00:00 UTC to 01 Mar 2011 00:00 UTC

    date/time    lat    long     hPa   cat  kts
2011-02-15 00   13.3   130.7    1004         30          
2011-02-15 06   13.0   130.4    1000         30          
2011-02-15 12   12.8   130.6     999         30          
2011-02-15 18   12.4   130.6     997         30          
2011-02-16 00   12.4   130.9     996    1    35          
2011-02-16 06   12.5   131.0     993    1    35          
2011-02-16 12   12.5   131.0     993    1    35          
2011-02-16 18   12.9   131.3     996    1    35          
2011-02-16 21   13.1   131.4     996         30          
2011-02-17 00   13.3   131.4     997         30          
2011-02-17 06   13.3   130.8     995         30          
2011-02-17 12   13.7   130.6     995         30          
2011-02-17 18   13.8   130.6     996         30          
2011-02-18 00   14.2   130.6     998         25          
2011-02-18 06   14.5   130.3     997         25          
2011-02-18 12   14.9   130.1     998         30          
2011-02-18 18   15.2   130.1     999         30          
2011-02-19 00   15.6   129.1     998         30          
2011-02-19 06   15.1   128.5     997         30          
2011-02-19 12   15.1   128.3     997         30          
2011-02-19 18   15.6   127.3     998         30          
2011-02-20 00   15.8   126.7     997         25          
2011-02-20 06   16.1   125.5     996         25          
2011-02-20 12   16.4   124.5     994         25          
2011-02-20 18   17.5   122.0     995         25          
2011-02-21 00   17.7   121.6     992    1    35          
2011-02-21 06   18.0   120.4     990    1    40          
2011-02-22 12   18.7   119.3     988    1    45          
2011-02-22 18   19.5   118.3     980    2    50          
2011-02-23 00   20.2   117.3     980    2    55          
2011-02-23 06   20.9   116.4     982    1    45          
2011-02-23 12   21.2   115.5     980    2    55          
2011-02-23 18   21.7   114.8     978    2    55          
2011-02-24 00   22.1   114.1     974    2    60          
2011-02-24 06   22.5   113.4     978    2    55          
2011-02-24 12   22.8   112.8     975    2    60          
2011-02-24 18   23.3   111.9     973    2    60          
2011-02-25 00   23.8   110.6     980    2    50          
2011-02-25 06   24.3   109.4     978    2    55          
2011-02-25 12   24.7   108.5     975    2    60          
2011-02-25 18   25.3   107.6     968    3    65          
2011-02-26 00   26.1   106.9     971    2    60          
2011-02-26 06   26.9   106.1     977    2    55          
2011-02-26 12   27.8   105.3     978    2    50          
2011-02-26 18   28.6   105.2     983    1    45          
2011-02-27 00   29.6   104.5     995         30          
2011-02-27 06   31.5   103.2    1004                     
2011-02-27 12   32.2   104.3    1005                     
2011-02-27 18   32.0   104.8    1006                     
2011-02-28 00   31.8   103.6    1006                     
2011-02-28 06   32.0   102.6    1006                     
2011-02-28 12   30.6   102.2    1007                     
2011-02-28 18   31.7   101.0    1008                     
2011-03-01 00   32.2    99.2    1007                     
Winds are 10-min average.

Tropical cyclone tracks developed by Michael Bath using operational warnings and advisories and Google Maps.


[Australian Severe Weather index] [Copyright Notice] [Email Contacts] [Search This Site] [Privacy Policy]
Document: tropical_cyclone_carlos.htm Updated: 2 May 2017